createdAt,value
2023-02-09T00:27:16.378Z,28.20
2023-02-09T00:29:47.993Z,34.70
2023-02-09T00:32:20.063Z,27.40
2023-02-09T00:34:47.823Z,35.60
2023-02-09T00:37:15.879Z,35.90
2023-02-09T00:39:46.223Z,25.60
2023-02-09T00:42:16.136Z,29.30
2023-02-09T00:44:43.881Z,41.50
2023-02-09T00:47:15.443Z,63.20
2023-02-09T00:49:43.511Z,97.40
2023-02-09T00:52:11.183Z,86.80
2023-02-09T00:54:39.658Z,51.90
2023-02-09T00:57:07.427Z,57.70
2023-02-09T00:59:38.434Z,37.50
2023-02-09T01:02:06.327Z,42.00
2023-02-09T01:04:35.291Z,35.70
2023-02-09T01:07:03.103Z,45.20
2023-02-09T01:09:32.278Z,48.80
2023-02-09T01:12:02.191Z,94.20
2023-02-09T01:14:32.759Z,92.80
2023-02-09T01:17:00.612Z,93.90
2023-02-09T01:19:29.398Z,72.30
2023-02-09T01:21:57.141Z,57.20
2023-02-09T01:24:24.690Z,44.80
2023-02-09T01:26:56.989Z,32.40
2023-02-09T01:29:25.658Z,37.10
2023-02-09T01:31:55.976Z,39.10
2023-02-09T01:34:24.254Z,38.50
2023-02-09T01:36:52.123Z,34.90
2023-02-09T01:39:20.973Z,31.30
2023-02-09T01:41:50.020Z,38.10
2023-02-09T01:44:22.895Z,42.10
2023-02-09T01:46:54.040Z,30.00
2023-02-09T01:49:25.925Z,30.80
2023-02-09T01:52:02.956Z,31.80
2023-02-09T01:54:55.390Z,31.30
2023-02-09T01:57:49.889Z,29.90
2023-02-09T02:00:19.743Z,33.60
2023-02-09T02:02:51.732Z,32.70
2023-02-09T02:05:20.063Z,27.10
2023-02-09T02:08:25.942Z,31.00
2023-02-09T02:10:57.184Z,29.40
2023-02-09T02:13:25.359Z,30.60
2023-02-09T02:16:15.142Z,31.50
2023-02-09T02:18:47.398Z,27.80
2023-02-09T02:21:55.326Z,32.80
2023-02-09T02:24:47.836Z,25.90
2023-02-09T02:27:44.997Z,24.50
2023-02-09T02:30:32.054Z,30.90
2023-02-09T02:33:37.255Z,28.10
2023-02-09T02:37:01.292Z,25.20
2023-02-09T02:39:55.116Z,26.20
2023-02-09T02:42:51.459Z,29.10
2023-02-09T02:45:51.709Z,32.00
2023-02-09T02:48:19.560Z,30.60
2023-02-09T02:51:08.341Z,29.20
2023-02-09T02:53:41.592Z,21.80
2023-02-09T02:56:22.161Z,29.40
2023-02-09T02:58:52.474Z,29.80
2023-02-09T03:01:22.644Z,22.70
2023-02-09T03:03:51.915Z,26.60
2023-02-09T03:06:20.177Z,26.80
2023-02-09T03:08:58.280Z,30.70
2023-02-09T03:11:31.679Z,31.70
2023-02-09T03:14:11.956Z,26.90
2023-02-09T03:16:48.323Z,27.00
2023-02-09T03:19:52.484Z,25.90
2023-02-09T03:22:37.591Z,24.30
2023-02-09T03:25:26.364Z,23.60
2023-02-09T03:28:17.102Z,23.30
2023-02-09T03:30:46.378Z,27.50
2023-02-09T03:33:21.064Z,28.70
2023-02-09T03:35:52.625Z,29.30
2023-02-09T03:38:23.057Z,27.70
2023-02-09T03:40:51.022Z,27.70
2023-02-09T03:43:20.944Z,30.90
2023-02-09T03:45:49.029Z,27.20
2023-02-09T03:48:16.882Z,30.30
2023-02-09T03:50:44.946Z,28.30
2023-02-09T03:53:14.524Z,29.60
2023-02-09T03:55:42.741Z,26.60
2023-02-09T03:58:10.804Z,24.70
2023-02-09T04:00:39.780Z,30.70
2023-02-09T04:03:07.690Z,27.10
2023-02-09T04:05:38.220Z,26.00
2023-02-09T04:08:07.499Z,29.20
2023-02-09T04:10:36.684Z,28.60
2023-02-09T04:13:04.650Z,30.40
2023-02-09T04:15:32.739Z,28.50
2023-02-09T04:18:02.385Z,34.00
2023-02-09T04:20:30.229Z,33.40
2023-02-09T04:22:57.969Z,34.40
2023-02-09T04:25:27.258Z,36.20
2023-02-09T04:27:55.114Z,35.10
2023-02-09T04:30:23.217Z,35.80
2023-02-09T04:32:52.110Z,39.20
2023-02-09T04:35:20.068Z,38.90
2023-02-09T04:37:49.268Z,35.20
2023-02-09T04:40:20.619Z,31.50
2023-02-09T04:42:52.685Z,33.50
2023-02-09T04:45:20.581Z,31.80
2023-02-09T04:47:49.033Z,30.20
2023-02-09T04:50:17.930Z,25.80
2023-02-09T04:52:45.888Z,27.90
2023-02-09T04:55:20.043Z,31.00
2023-02-09T04:58:11.534Z,34.40
2023-02-09T05:00:39.736Z,30.60
2023-02-09T05:03:07.606Z,31.30
2023-02-09T05:05:40.082Z,29.30
2023-02-09T05:08:08.333Z,35.30
2023-02-09T05:10:36.380Z,37.70
2023-02-09T05:13:05.940Z,39.70
2023-02-09T05:15:34.806Z,41.70
2023-02-09T05:18:04.584Z,34.80
2023-02-09T05:20:34.405Z,39.10
2023-02-09T05:23:07.494Z,46.00
2023-02-09T05:25:36.989Z,48.20
2023-02-09T05:28:12.663Z,55.90
2023-02-09T05:30:44.464Z,53.50
2023-02-09T05:33:13.806Z,58.80
2023-02-09T05:35:41.808Z,74.10
2023-02-09T05:38:12.108Z,65.00
2023-02-09T05:40:41.249Z,51.70
2023-02-09T05:43:10.267Z,71.10
2023-02-09T05:45:39.062Z,66.00
2023-02-09T05:48:10.056Z,68.50
2023-02-09T05:50:39.859Z,77.60
2023-02-09T05:53:09.672Z,79.90
2023-02-09T05:55:39.694Z,87.70
2023-02-09T05:58:08.956Z,92.00
2023-02-09T06:00:38.869Z,82.30
2023-02-09T06:03:08.202Z,94.60
2023-02-09T06:05:40.986Z,93.80
2023-02-09T06:08:09.963Z,103.70
2023-02-09T06:10:38.330Z,119.40
2023-02-09T06:13:07.550Z,127.90
2023-02-09T06:15:38.203Z,127.40
2023-02-09T06:18:08.898Z,146.10
2023-02-09T06:20:36.747Z,117.40
2023-02-09T06:23:05.135Z,98.60
2023-02-09T06:25:33.436Z,102.00
2023-02-09T06:28:04.336Z,101.40
2023-02-09T06:33:01.877Z,114.80
2023-02-09T06:35:31.174Z,104.60
2023-02-09T06:38:00.011Z,109.70
2023-02-09T06:40:28.432Z,104.10
2023-02-09T06:42:57.180Z,110.40
2023-02-09T06:45:25.190Z,89.30
2023-02-09T06:47:53.533Z,96.80
2023-02-09T06:50:21.417Z,98.70
2023-02-09T06:52:50.000Z,95.30
2023-02-09T06:55:19.194Z,82.60
2023-02-09T06:57:46.960Z,86.70
2023-02-09T07:00:15.239Z,91.90
2023-02-09T07:02:44.530Z,84.50
2023-02-09T07:05:13.421Z,79.30
2023-02-09T07:07:41.384Z,69.80
2023-02-09T07:10:10.109Z,75.10
2023-02-09T07:12:40.752Z,68.50
2023-02-09T07:15:08.998Z,69.30
2023-02-09T07:17:39.882Z,60.70
2023-02-09T07:20:09.546Z,59.70
2023-02-09T07:22:38.949Z,51.30
2023-02-09T07:25:07.752Z,52.00
2023-02-09T07:27:36.002Z,53.50
2023-02-09T07:30:04.698Z,56.80
2023-02-09T07:32:34.150Z,51.50
2023-02-09T07:35:02.463Z,57.40
2023-02-09T07:37:30.421Z,48.40
2023-02-09T07:39:59.183Z,48.70
2023-02-09T07:42:27.276Z,51.30
2023-02-09T07:45:01.417Z,53.10
2023-02-09T07:47:29.681Z,48.30
2023-02-09T07:49:58.203Z,48.50
2023-02-09T07:52:26.602Z,49.70
2023-02-09T07:54:54.001Z,53.10
2023-02-09T07:57:21.617Z,45.40
2023-02-09T07:59:50.277Z,44.00
2023-02-09T08:02:24.864Z,47.90
2023-02-09T08:04:53.333Z,45.60
2023-02-09T08:07:22.143Z,47.20
2023-02-09T08:09:51.421Z,28.80
2023-02-09T08:12:42.342Z,44.40
2023-02-09T08:15:13.065Z,37.80
2023-02-09T08:17:41.871Z,38.00
2023-02-09T08:20:17.664Z,35.30
2023-02-09T08:22:49.004Z,40.70
2023-02-09T08:25:19.567Z,44.00
2023-02-09T08:27:47.868Z,37.80
2023-02-09T08:30:20.086Z,30.80
2023-02-09T08:32:51.273Z,39.30
2023-02-09T08:35:20.168Z,38.80
2023-02-09T08:37:52.331Z,32.70
2023-02-09T08:40:20.639Z,39.80
2023-02-09T08:42:50.181Z,39.00
2023-02-09T08:45:18.948Z,37.10
2023-02-09T08:47:48.105Z,35.60
2023-02-09T08:50:19.885Z,33.90
2023-02-09T08:52:48.706Z,35.80
2023-02-09T08:55:18.268Z,31.20
2023-02-09T08:57:46.957Z,34.40
2023-02-09T09:00:23.747Z,36.20
2023-02-09T09:02:55.067Z,37.10
2023-02-09T09:05:24.448Z,30.10
2023-02-09T09:07:53.367Z,37.10
2023-02-09T09:10:24.728Z,32.60
2023-02-09T09:12:54.518Z,30.00
2023-02-09T09:15:24.039Z,31.60
2023-02-09T09:17:54.284Z,24.10
2023-02-09T09:20:22.920Z,28.50
2023-02-09T09:22:50.881Z,25.60
2023-02-09T09:25:19.957Z,28.40
2023-02-09T09:27:49.429Z,29.20
2023-02-09T09:30:17.144Z,32.90
2023-02-09T09:32:46.552Z,29.40
2023-02-09T09:35:14.888Z,32.50
2023-02-09T09:37:45.812Z,31.50
2023-02-09T09:40:27.704Z,36.00
2023-02-09T09:43:00.802Z,35.90
2023-02-09T09:45:29.998Z,30.80
2023-02-09T09:47:58.146Z,33.90
2023-02-09T09:50:30.571Z,29.00
2023-02-09T09:53:05.010Z,31.70
2023-02-09T09:55:32.940Z,31.80
2023-02-09T09:58:03.250Z,33.10
2023-02-09T10:00:41.442Z,36.10
2023-02-09T10:03:14.043Z,28.90
2023-02-09T10:05:42.451Z,31.80
2023-02-09T10:08:10.687Z,29.60
2023-02-09T10:11:01.625Z,26.70
2023-02-09T10:14:03.942Z,28.60
2023-02-09T10:16:40.144Z,28.50
2023-02-09T10:19:22.108Z,24.40
2023-02-09T10:21:51.157Z,27.90
2023-02-09T10:24:39.657Z,22.40
2023-02-09T10:27:26.310Z,23.40
2023-02-09T10:29:56.517Z,22.00
2023-02-09T10:32:29.168Z,23.30
2023-02-09T10:34:57.468Z,28.90
2023-02-09T10:37:37.789Z,26.40
2023-02-09T10:40:21.876Z,28.50
2023-02-09T10:43:02.924Z,24.10
2023-02-09T10:45:47.637Z,26.20
2023-02-09T10:48:19.459Z,19.80
2023-02-09T10:50:58.060Z,25.80
2023-02-09T10:53:32.253Z,40.30
2023-02-09T10:56:21.333Z,22.80
2023-02-09T10:59:00.896Z,18.80
2023-02-09T11:01:32.628Z,22.10
2023-02-09T11:04:01.446Z,26.40
2023-02-09T11:06:33.917Z,23.40
2023-02-09T11:09:16.400Z,21.80
2023-02-09T11:11:44.837Z,26.90
2023-02-09T11:14:14.330Z,20.00
2023-02-09T11:16:44.043Z,20.00
2023-02-09T11:19:22.243Z,22.10
2023-02-09T11:22:15.801Z,19.30
2023-02-09T11:24:58.542Z,24.60
2023-02-09T11:31:51.515Z,28.20
2023-02-09T11:34:37.274Z,23.60
2023-02-09T11:37:44.642Z,18.50
2023-02-09T11:40:26.530Z,15.10
2023-02-09T11:43:08.383Z,22.40
2023-02-09T11:45:43.455Z,20.00
2023-02-09T11:48:18.433Z,20.40
2023-02-09T11:51:08.675Z,19.20
2023-02-09T11:56:07.738Z,23.40
2023-02-09T11:58:47.167Z,22.00
2023-02-09T12:01:35.059Z,23.80
2023-02-09T12:04:26.188Z,22.10
2023-02-09T12:06:57.106Z,22.50
2023-02-09T12:09:45.945Z,22.90
2023-02-09T12:12:29.314Z,22.60
2023-02-09T12:15:21.026Z,24.20
2023-02-09T12:17:57.860Z,20.60
2023-02-09T12:20:37.272Z,19.10
2023-02-09T12:23:11.443Z,25.60
2023-02-09T12:25:51.559Z,36.90
2023-02-09T12:28:25.676Z,23.40
2023-02-09T12:30:58.329Z,23.40
2023-02-09T12:33:26.664Z,25.10
2023-02-09T12:36:10.901Z,21.60
2023-02-09T12:38:55.934Z,21.90
2023-02-09T12:41:41.101Z,23.30
2023-02-09T12:44:10.922Z,28.10
2023-02-09T12:46:53.063Z,25.30
2023-02-09T12:49:33.490Z,22.30
2023-02-09T12:55:00.323Z,33.60
2023-02-09T12:58:06.718Z,30.10
2023-02-09T13:00:40.532Z,25.60
2023-02-09T13:03:12.891Z,23.20
2023-02-09T13:05:41.588Z,22.70
2023-02-09T13:08:19.553Z,24.60
2023-02-09T13:11:13.631Z,21.70
2023-02-09T13:13:56.564Z,25.90
2023-02-09T13:16:24.199Z,39.10
2023-02-09T13:19:12.696Z,54.20
2023-02-09T13:22:01.704Z,38.70
2023-02-09T13:24:39.046Z,34.90
2023-02-09T13:27:18.899Z,31.10
2023-02-09T13:29:51.636Z,30.70
2023-02-09T13:32:51.299Z,31.00
2023-02-09T13:35:23.860Z,24.50
2023-02-09T13:37:58.148Z,23.90
2023-02-09T13:40:30.908Z,22.90
2023-02-09T13:43:11.585Z,42.10
2023-02-09T13:45:48.748Z,24.10
2023-02-09T13:48:31.251Z,20.70
2023-02-09T13:51:04.059Z,18.00
2023-02-09T13:53:33.776Z,22.70
2023-02-09T13:56:02.499Z,17.60
2023-02-09T13:58:35.342Z,17.40
2023-02-09T14:01:08.126Z,15.80
2023-02-09T14:03:46.929Z,15.10
2023-02-09T14:06:27.739Z,17.90
2023-02-09T14:08:58.960Z,16.50
2023-02-09T14:11:41.603Z,17.60
2023-02-09T14:14:53.219Z,17.60
2023-02-09T14:17:25.827Z,17.20
2023-02-09T14:19:55.907Z,14.80
2023-02-09T14:22:29.243Z,19.90
2023-02-09T14:24:58.676Z,26.90
2023-02-09T14:27:27.601Z,27.20
2023-02-09T14:29:55.747Z,24.00
2023-02-09T14:32:37.483Z,21.10
2023-02-09T14:35:23.150Z,19.90
2023-02-09T14:37:52.020Z,19.60
2023-02-09T14:40:29.502Z,22.60
2023-02-09T14:43:00.534Z,22.20
2023-02-09T14:45:39.142Z,20.50
2023-02-09T14:48:29.514Z,25.50
2023-02-09T14:51:01.633Z,20.40
2023-02-09T14:53:31.009Z,21.60
2023-02-09T14:55:59.203Z,22.10
2023-02-09T14:58:31.459Z,20.80
2023-02-09T15:01:00.448Z,18.90
2023-02-09T15:03:28.182Z,17.00
2023-02-09T15:06:00.789Z,18.50
2023-02-09T15:08:30.638Z,16.50
2023-02-09T15:11:24.165Z,20.00
2023-02-09T15:13:54.790Z,16.00
2023-02-09T15:16:22.468Z,16.00
2023-02-09T15:18:50.062Z,19.40
2023-02-09T15:21:18.343Z,24.20
2023-02-09T15:23:45.952Z,39.80
2023-02-09T15:26:16.501Z,32.50
2023-02-09T15:28:45.107Z,28.10
2023-02-09T15:31:16.394Z,29.90
2023-02-09T15:33:45.519Z,18.90
2023-02-09T15:36:16.621Z,28.00
2023-02-09T15:38:45.300Z,27.30
2023-02-09T15:41:34.399Z,24.80
2023-02-09T15:44:38.074Z,36.80
2023-02-09T15:47:24.309Z,34.60
2023-02-09T15:49:51.854Z,42.00
2023-02-09T15:52:19.266Z,37.90
2023-02-09T15:54:47.112Z,40.90
2023-02-09T15:57:15.604Z,44.00
2023-02-09T15:59:43.275Z,46.20
2023-02-09T16:02:12.946Z,45.10
2023-02-09T16:04:41.387Z,44.10
2023-02-09T16:07:12.332Z,36.30
2023-02-09T16:09:41.268Z,32.10
2023-02-09T16:12:11.374Z,24.30
2023-02-09T16:14:40.177Z,28.60
2023-02-09T16:17:08.026Z,29.70
2023-02-09T16:19:36.760Z,24.40
2023-02-09T16:22:06.133Z,29.00
2023-02-09T16:24:41.777Z,26.40
2023-02-09T16:27:28.241Z,27.40
2023-02-09T16:29:57.201Z,24.50
2023-02-09T16:32:28.857Z,29.30
2023-02-09T16:35:07.415Z,32.50
2023-02-09T16:37:44.949Z,28.20
2023-02-09T16:40:17.402Z,32.60
2023-02-09T16:42:47.703Z,26.00
2023-02-09T16:47:49.079Z,30.80
2023-02-09T16:50:33.958Z,34.10
2023-02-09T16:53:03.478Z,28.90
2023-02-09T16:55:33.470Z,28.80
2023-02-09T16:58:03.299Z,27.50
2023-02-09T17:00:33.285Z,26.90
2023-02-09T17:03:13.871Z,27.80
2023-02-09T17:05:44.146Z,35.10
2023-02-09T17:08:27.078Z,44.60
2023-02-09T17:10:55.948Z,43.80
2023-02-09T17:13:23.903Z,41.00
2023-02-09T17:15:53.349Z,42.70
2023-02-09T17:18:26.280Z,35.10
2023-02-09T17:20:55.920Z,34.80
2023-02-09T17:23:25.047Z,31.90
2023-02-09T17:25:54.870Z,34.30
2023-02-09T17:28:26.073Z,41.50
2023-02-09T17:30:57.198Z,42.80
2023-02-09T17:33:30.370Z,39.40
2023-02-09T17:36:25.111Z,39.10
2023-02-09T17:38:49.089Z,41.00
2023-02-09T17:41:34.028Z,36.40
2023-02-09T17:44:22.223Z,41.00
2023-02-09T17:46:54.418Z,42.80
2023-02-09T17:49:22.882Z,40.70
2023-02-09T17:51:51.237Z,38.20
2023-02-09T17:54:19.764Z,37.30
2023-02-09T17:56:47.141Z,43.30
2023-02-09T17:59:19.343Z,46.50
2023-02-09T18:01:49.269Z,42.50
2023-02-09T18:04:28.297Z,46.90
2023-02-09T18:06:58.088Z,52.20
2023-02-09T18:09:26.016Z,62.40
2023-02-09T18:12:01.201Z,60.70
2023-02-09T18:14:31.611Z,66.30
2023-02-09T18:17:01.149Z,52.70
2023-02-09T18:19:29.035Z,52.80
2023-02-09T18:22:02.471Z,61.70
2023-02-09T18:24:32.118Z,74.80
2023-02-09T18:27:00.236Z,69.20
2023-02-09T18:29:31.199Z,49.30
2023-02-09T18:31:59.614Z,38.20
2023-02-09T18:34:28.000Z,36.60
2023-02-09T18:36:57.500Z,35.60
2023-02-09T18:39:25.070Z,38.00
2023-02-09T18:41:55.754Z,32.70
2023-02-09T18:44:28.141Z,36.60
2023-02-09T18:46:56.491Z,42.30
2023-02-09T18:49:24.502Z,35.50
2023-02-09T18:51:51.980Z,33.40
2023-02-09T18:54:22.161Z,36.00
2023-02-09T18:56:55.529Z,32.70
2023-02-09T18:59:30.448Z,39.10
2023-02-09T19:02:05.034Z,37.40
2023-02-09T19:04:32.476Z,41.30
2023-02-09T19:07:09.022Z,40.20
2023-02-09T19:09:40.014Z,41.90
2023-02-09T19:12:14.347Z,41.40
2023-02-09T19:14:45.764Z,37.60
2023-02-09T19:17:16.317Z,45.60
2023-02-09T19:19:55.999Z,65.00
2023-02-09T19:22:28.103Z,73.50
2023-02-09T19:25:00.292Z,52.60
2023-02-09T19:27:29.838Z,52.10
2023-02-09T19:29:59.802Z,42.50
2023-02-09T19:32:27.543Z,44.70
2023-02-09T19:35:00.009Z,44.60
2023-02-09T19:37:27.287Z,40.70
2023-02-09T19:40:10.299Z,39.30
2023-02-09T19:42:43.483Z,43.10
2023-02-09T19:45:18.237Z,39.90
2023-02-09T19:47:45.485Z,42.80
2023-02-09T19:50:15.057Z,46.70
2023-02-09T19:52:45.328Z,52.40
2023-02-09T19:55:13.350Z,55.20
2023-02-09T19:57:42.238Z,43.70
2023-02-09T20:00:14.513Z,44.20
2023-02-09T20:02:42.789Z,52.30
2023-02-09T20:05:10.497Z,64.00
2023-02-09T20:07:38.800Z,52.40
2023-02-09T20:10:08.821Z,49.40
2023-02-09T20:12:39.626Z,61.40
2023-02-09T20:15:15.069Z,60.40
2023-02-09T20:17:44.217Z,49.50
2023-02-09T20:20:15.901Z,55.70
2023-02-09T20:22:48.229Z,87.30
2023-02-09T20:25:15.873Z,113.40
2023-02-09T20:27:44.430Z,129.30
2023-02-09T20:30:13.041Z,171.60
2023-02-09T20:32:42.281Z,139.10
2023-02-09T20:35:11.263Z,160.90
2023-02-09T20:37:38.880Z,145.60
2023-02-09T20:40:11.230Z,60.80
2023-02-09T20:42:59.074Z,86.10
2023-02-09T20:45:46.161Z,87.80
2023-02-09T20:48:14.315Z,68.20
2023-02-09T20:50:45.057Z,73.00
2023-02-09T20:53:13.414Z,62.60
2023-02-09T20:55:41.553Z,102.50
2023-02-09T20:58:11.764Z,108.60
2023-02-09T21:00:40.938Z,62.40
2023-02-09T21:03:10.234Z,61.60
2023-02-09T21:05:37.854Z,64.50
2023-02-09T21:08:07.428Z,67.80
2023-02-09T21:10:38.047Z,51.60
2023-02-09T21:13:08.989Z,68.60
2023-02-09T21:15:41.298Z,66.40
2023-02-09T21:18:08.939Z,75.90
2023-02-09T21:20:36.722Z,65.10
2023-02-09T21:23:05.528Z,68.20
2023-02-09T21:25:35.428Z,64.50
2023-02-09T21:28:03.911Z,87.00
2023-02-09T21:30:31.381Z,94.20
2023-02-09T21:33:01.848Z,77.20
2023-02-09T21:35:29.506Z,78.30
2023-02-09T21:37:56.877Z,62.50
2023-02-09T21:40:25.496Z,60.40
2023-02-09T21:42:52.828Z,53.80
2023-02-09T21:45:20.535Z,57.30
2023-02-09T21:47:48.293Z,69.30
2023-02-09T21:50:15.866Z,67.10
2023-02-09T21:52:43.501Z,62.80
2023-02-09T21:55:11.635Z,61.00
2023-02-09T21:57:39.424Z,59.90
2023-02-09T22:00:08.902Z,60.00
2023-02-09T22:02:36.609Z,50.90
2023-02-09T22:05:04.326Z,54.60
2023-02-09T22:07:32.611Z,59.00
2023-02-09T22:10:01.851Z,56.30
2023-02-09T22:12:29.566Z,58.10
2023-02-09T22:14:57.142Z,64.70
2023-02-09T22:17:25.732Z,63.10
2023-02-09T22:19:53.333Z,57.40
2023-02-09T22:22:21.024Z,63.10
2023-02-09T22:24:49.646Z,66.20
2023-02-09T22:27:22.294Z,59.80
2023-02-09T22:29:51.177Z,56.20
2023-02-09T22:32:20.184Z,57.40
2023-02-09T22:34:49.201Z,59.60
2023-02-09T22:37:16.557Z,58.50
2023-02-09T22:39:45.319Z,57.30
2023-02-09T22:42:14.042Z,57.60
2023-02-09T22:44:41.937Z,55.60
2023-02-09T22:47:09.428Z,56.40
2023-02-09T22:49:39.201Z,56.40
2023-02-09T22:52:07.611Z,57.30
2023-02-09T22:54:36.628Z,66.50
2023-02-09T22:57:05.294Z,58.50
2023-02-09T22:59:36.220Z,63.80
2023-02-09T23:02:04.652Z,62.40
2023-02-09T23:04:32.979Z,56.90
2023-02-09T23:07:00.709Z,53.30
2023-02-09T23:09:28.373Z,56.40
2023-02-09T23:11:55.635Z,56.30
2023-02-09T23:14:23.168Z,53.90
2023-02-09T23:16:50.586Z,59.60
2023-02-09T23:19:20.154Z,53.60
2023-02-09T23:21:49.213Z,55.70
2023-02-09T23:24:21.141Z,60.00
2023-02-09T23:26:48.991Z,58.80
2023-02-09T23:29:17.219Z,58.00
2023-02-09T23:31:45.862Z,57.90
2023-02-09T23:34:14.916Z,58.10
2023-02-09T23:36:42.802Z,60.50
2023-02-09T23:39:13.277Z,62.40
2023-02-09T23:41:41.261Z,70.90
2023-02-09T23:44:09.107Z,71.00
2023-02-09T23:46:36.793Z,83.20
2023-02-09T23:49:04.346Z,84.30
2023-02-09T23:51:35.462Z,81.40
2023-02-09T23:54:04.976Z,69.10
2023-02-09T23:56:37.429Z,79.10
2023-02-09T23:59:06.994Z,79.40
